sensor_id;sensor_type;location;lat;lon;timestamp;P1;P2;P0
34176;PMS7003;20450;49.074;9.158;2023-12-20T00:01:09;14.50;12.00;9.00
34176;PMS7003;20450;49.074;9.158;2023-12-20T00:03:37;21.75;20.50;17.00
34176;PMS7003;20450;49.074;9.158;2023-12-20T00:06:08;19.75;19.75;13.00
34176;PMS7003;20450;49.074;9.158;2023-12-20T00:08:36;12.00;12.00;8.75
34176;PMS7003;20450;49.074;9.158;2023-12-20T00:11:03;3.00;3.00;1.00
34176;PMS7003;20450;49.074;9.158;2023-12-20T00:13:32;19.25;18.25;14.75
34176;PMS7003;20450;49.074;9.158;2023-12-20T00:15:59;17.75;16.75;13.50
34176;PMS7003;20450;49.074;9.158;2023-12-20T00:18:26;21.75;19.25;15.25
34176;PMS7003;20450;49.074;9.158;2023-12-20T00:20:54;21.75;20.75;14.75
34176;PMS7003;20450;49.074;9.158;2023-12-20T00:23:21;23.75;20.75;18.00
34176;PMS7003;20450;49.074;9.158;2023-12-20T00:25:49;19.75;19.75;15.00
34176;PMS7003;20450;49.074;9.158;2023-12-20T00:28:16;20.75;20.75;15.00
34176;PMS7003;20450;49.074;9.158;2023-12-20T00:30:45;20.00;19.25;14.00
34176;PMS7003;20450;49.074;9.158;2023-12-20T00:33:12;21.00;20.00;15.50
34176;PMS7003;20450;49.074;9.158;2023-12-20T00:35:40;19.00;19.00;15.00
34176;PMS7003;20450;49.074;9.158;2023-12-20T00:38:07;23.25;19.50;15.50
34176;PMS7003;20450;49.074;9.158;2023-12-20T00:40:34;19.25;18.25;14.25
34176;PMS7003;20450;49.074;9.158;2023-12-20T00:43:01;22.25;18.50;14.25
34176;PMS7003;20450;49.074;9.158;2023-12-20T00:45:29;23.50;22.00;16.75
34176;PMS7003;20450;49.074;9.158;2023-12-20T00:48:02;21.50;20.75;17.50
34176;PMS7003;20450;49.074;9.158;2023-12-20T00:50:29;17.25;15.75;13.25
34176;PMS7003;20450;49.074;9.158;2023-12-20T00:52:56;19.75;19.75;16.75
34176;PMS7003;20450;49.074;9.158;2023-12-20T00:55:24;18.50;17.50;14.00
34176;PMS7003;20450;49.074;9.158;2023-12-20T00:57:52;22.75;22.75;17.25
34176;PMS7003;20450;49.074;9.158;2023-12-20T01:00:19;18.00;15.50;14.50
34176;PMS7003;20450;49.074;9.158;2023-12-20T01:02:46;19.00;18.00;15.00
34176;PMS7003;20450;49.074;9.158;2023-12-20T01:05:15;18.75;18.00;14.00
34176;PMS7003;20450;49.074;9.158;2023-12-20T01:07:42;21.25;19.75;15.50
34176;PMS7003;20450;49.074;9.158;2023-12-20T01:10:09;19.00;19.00;12.25
34176;PMS7003;20450;49.074;9.158;2023-12-20T01:12:37;22.00;21.00;18.00
34176;PMS7003;20450;49.074;9.158;2023-12-20T01:15:05;19.75;18.75;14.00
34176;PMS7003;20450;49.074;9.158;2023-12-20T01:17:33;18.25;18.25;13.75
34176;PMS7003;20450;49.074;9.158;2023-12-20T01:20:00;16.25;10.50;7.00
34176;PMS7003;20450;49.074;9.158;2023-12-20T01:22:31;11.50;9.25;7.00
34176;PMS7003;20450;49.074;9.158;2023-12-20T01:25:01;12.00;9.50;5.00
34176;PMS7003;20450;49.074;9.158;2023-12-20T01:27:28;9.50;8.50;6.00
34176;PMS7003;20450;49.074;9.158;2023-12-20T01:29:55;11.75;11.00;6.75
34176;PMS7003;20450;49.074;9.158;2023-12-20T01:32:23;15.50;15.00;11.50
34176;PMS7003;20450;49.074;9.158;2023-12-20T01:34:50;17.00;13.75;10.00
34176;PMS7003;20450;49.074;9.158;2023-12-20T01:37:18;10.50;10.50;8.25
34176;PMS7003;20450;49.074;9.158;2023-12-20T01:39:47;10.00;7.00;6.00
34176;PMS7003;20450;49.074;9.158;2023-12-20T01:42:14;10.00;10.00;7.00
34176;PMS7003;20450;49.074;9.158;2023-12-20T01:44:41;6.75;6.75;5.75
34176;PMS7003;20450;49.074;9.158;2023-12-20T01:47:08;6.00;6.00;5.00
34176;PMS7003;20450;49.074;9.158;2023-12-20T01:49:36;5.75;5.75;4.75
34176;PMS7003;20450;49.074;9.158;2023-12-20T01:52:04;5.25;5.25;4.75
34176;PMS7003;20450;49.074;9.158;2023-12-20T01:54:36;4.00;4.00;3.00
34176;PMS7003;20450;49.074;9.158;2023-12-20T01:57:08;3.25;3.25;3.25
34176;PMS7003;20450;49.074;9.158;2023-12-20T01:59:37;3.00;3.00;2.25
34176;PMS7003;20450;49.074;9.158;2023-12-20T02:02:06;2.50;2.00;2.00
34176;PMS7003;20450;49.074;9.158;2023-12-20T02:04:35;1.00;1.00;1.00
34176;PMS7003;20450;49.074;9.158;2023-12-20T02:07:03;1.50;1.50;1.00
34176;PMS7003;20450;49.074;9.158;2023-12-20T02:09:31;1.25;1.25;1.25
34176;PMS7003;20450;49.074;9.158;2023-12-20T02:11:58;1.00;1.00;1.00
34176;PMS7003;20450;49.074;9.158;2023-12-20T02:14:28;1.50;1.00;1.00
34176;PMS7003;20450;49.074;9.158;2023-12-20T02:16:55;1.75;0.00;0.00
34176;PMS7003;20450;49.074;9.158;2023-12-20T02:19:22;1.00;1.00;0.50
34176;PMS7003;20450;49.074;9.158;2023-12-20T02:21:51;1.00;1.00;1.00
34176;PMS7003;20450;49.074;9.158;2023-12-20T02:24:33;0.00;0.00;0.00
34176;PMS7003;20450;49.074;9.158;2023-12-20T02:27:00;0.75;0.75;0.75
34176;PMS7003;20450;49.074;9.158;2023-12-20T02:29:27;1.00;1.00;1.00
34176;PMS7003;20450;49.074;9.158;2023-12-20T02:31:56;0.00;0.00;0.00
34176;PMS7003;20450;49.074;9.158;2023-12-20T02:34:23;0.50;0.50;0.50
34176;PMS7003;20450;49.074;9.158;2023-12-20T02:36:52;1.00;1.00;1.00
34176;PMS7003;20450;49.074;9.158;2023-12-20T02:41:49;0.50;0.50;0.00
34176;PMS7003;20450;49.074;9.158;2023-12-20T02:44:16;0.00;0.00;0.00
34176;PMS7003;20450;49.074;9.158;2023-12-20T02:46:43;1.25;1.25;0.25
34176;PMS7003;20450;49.074;9.158;2023-12-20T02:49:11;0.00;0.00;0.00
34176;PMS7003;20450;49.074;9.158;2023-12-20T02:51:38;0.75;0.75;0.75
34176;PMS7003;20450;49.074;9.158;2023-12-20T02:54:08;1.00;1.00;0.25
34176;PMS7003;20450;49.074;9.158;2023-12-20T02:56:35;0.00;0.00;0.00
34176;PMS7003;20450;49.074;9.158;2023-12-20T02:59:02;0.00;0.00;0.00
34176;PMS7003;20450;49.074;9.158;2023-12-20T03:01:30;0.00;0.00;0.00
34176;PMS7003;20450;49.074;9.158;2023-12-20T03:03:57;0.00;0.00;0.00
34176;PMS7003;20450;49.074;9.158;2023-12-20T03:06:25;0.00;0.00;0.00
34176;PMS7003;20450;49.074;9.158;2023-12-20T03:08:52;0.00;0.00;0.00
34176;PMS7003;20450;49.074;9.158;2023-12-20T03:11:21;0.00;0.00;0.00
34176;PMS7003;20450;49.074;9.158;2023-12-20T03:13:48;0.00;0.00;0.00
34176;PMS7003;20450;49.074;9.158;2023-12-20T03:16:15;0.00;0.00;0.00
34176;PMS7003;20450;49.074;9.158;2023-12-20T03:18:42;0.00;0.00;0.00
34176;PMS7003;20450;49.074;9.158;2023-12-20T03:21:09;0.00;0.00;0.00
34176;PMS7003;20450;49.074;9.158;2023-12-20T03:23:37;0.50;0.50;0.00
34176;PMS7003;20450;49.074;9.158;2023-12-20T03:26:06;0.00;0.00;0.00
34176;PMS7003;20450;49.074;9.158;2023-12-20T03:28:35;1.00;0.00;0.00
34176;PMS7003;20450;49.074;9.158;2023-12-20T03:31:03;0.00;0.00;0.00
34176;PMS7003;20450;49.074;9.158;2023-12-20T03:33:30;1.50;0.00;0.00
34176;PMS7003;20450;49.074;9.158;2023-12-20T03:35:58;0.75;0.00;0.00
34176;PMS7003;20450;49.074;9.158;2023-12-20T03:38:26;0.00;0.00;0.00
34176;PMS7003;20450;49.074;9.158;2023-12-20T03:40:53;0.00;0.00;0.00
34176;PMS7003;20450;49.074;9.158;2023-12-20T03:43:20;0.00;0.00;0.00
34176;PMS7003;20450;49.074;9.158;2023-12-20T03:45:49;0.75;0.00;0.00
34176;PMS7003;20450;49.074;9.158;2023-12-20T03:48:16;2.25;1.00;1.00
34176;PMS7003;20450;49.074;9.158;2023-12-20T03:50:45;0.00;0.00;0.00
34176;PMS7003;20450;49.074;9.158;2023-12-20T03:53:12;0.00;0.00;0.00
34176;PMS7003;20450;49.074;9.158;2023-12-20T03:55:41;0.00;0.00;0.00
34176;PMS7003;20450;49.074;9.158;2023-12-20T03:58:08;1.00;1.00;1.00
34176;PMS7003;20450;49.074;9.158;2023-12-20T04:00:35;0.00;0.00;0.00
34176;PMS7003;20450;49.074;9.158;2023-12-20T04:03:04;0.00;0.00;0.00
34176;PMS7003;20450;49.074;9.158;2023-12-20T04:05:31;0.50;0.00;0.00
34176;PMS7003;20450;49.074;9.158;2023-12-20T04:08:04;1.00;1.00;0.25
34176;PMS7003;20450;49.074;9.158;2023-12-20T04:10:48;0.50;0.50;0.00
34176;PMS7003;20450;49.074;9.158;2023-12-20T04:13:15;1.00;1.00;1.00
34176;PMS7003;20450;49.074;9.158;2023-12-20T04:15:42;1.75;0.50;0.00
34176;PMS7003;20450;49.074;9.158;2023-12-20T04:18:11;2.00;2.00;1.75
34176;PMS7003;20450;49.074;9.158;2023-12-20T04:20:38;1.50;1.00;1.00
34176;PMS7003;20450;49.074;9.158;2023-12-20T04:23:05;2.00;2.00;2.00
34176;PMS7003;20450;49.074;9.158;2023-12-20T04:25:33;2.00;0.75;0.75
34176;PMS7003;20450;49.074;9.158;2023-12-20T04:28:00;1.00;1.00;1.00
34176;PMS7003;20450;49.074;9.158;2023-12-20T04:30:27;2.00;1.00;1.00
34176;PMS7003;20450;49.074;9.158;2023-12-20T04:32:54;1.00;1.00;0.75
34176;PMS7003;20450;49.074;9.158;2023-12-20T04:35:23;0.00;0.00;0.00
34176;PMS7003;20450;49.074;9.158;2023-12-20T04:37:51;2.00;1.00;1.00
34176;PMS7003;20450;49.074;9.158;2023-12-20T04:40:18;0.00;0.00;0.00
34176;PMS7003;20450;49.074;9.158;2023-12-20T04:42:45;2.75;1.00;1.00
34176;PMS7003;20450;49.074;9.158;2023-12-20T04:45:12;1.00;1.00;1.00
34176;PMS7003;20450;49.074;9.158;2023-12-20T04:47:39;1.00;1.00;1.00
34176;PMS7003;20450;49.074;9.158;2023-12-20T04:50:09;1.00;1.00;1.00
34176;PMS7003;20450;49.074;9.158;2023-12-20T04:52:38;1.00;1.00;1.00
34176;PMS7003;20450;49.074;9.158;2023-12-20T04:55:06;1.75;1.75;1.75
34176;PMS7003;20450;49.074;9.158;2023-12-20T04:57:36;0.00;0.00;0.00
34176;PMS7003;20450;49.074;9.158;2023-12-20T05:00:03;1.50;1.00;0.75
34176;PMS7003;20450;49.074;9.158;2023-12-20T05:02:32;2.00;2.00;2.00
34176;PMS7003;20450;49.074;9.158;2023-12-20T05:04:59;1.00;1.00;1.00
34176;PMS7003;20450;49.074;9.158;2023-12-20T05:07:27;2.00;2.00;2.00
34176;PMS7003;20450;49.074;9.158;2023-12-20T05:09:56;2.25;1.00;1.00
34176;PMS7003;20450;49.074;9.158;2023-12-20T05:12:23;2.00;1.75;1.00
34176;PMS7003;20450;49.074;9.158;2023-12-20T05:14:51;1.50;1.50;1.50
34176;PMS7003;20450;49.074;9.158;2023-12-20T05:17:19;1.75;1.75;1.75
34176;PMS7003;20450;49.074;9.158;2023-12-20T05:19:46;1.75;1.75;1.75
34176;PMS7003;20450;49.074;9.158;2023-12-20T05:22:13;2.00;2.00;2.00
34176;PMS7003;20450;49.074;9.158;2023-12-20T05:24:42;1.25;1.25;1.00
34176;PMS7003;20450;49.074;9.158;2023-12-20T05:27:11;2.25;2.25;2.00
34176;PMS7003;20450;49.074;9.158;2023-12-20T05:29:38;3.50;3.50;2.50
34176;PMS7003;20450;49.074;9.158;2023-12-20T05:32:06;2.75;2.75;2.50
34176;PMS7003;20450;49.074;9.158;2023-12-20T05:34:34;2.00;2.00;2.00
34176;PMS7003;20450;49.074;9.158;2023-12-20T05:37:01;2.50;2.50;2.00
34176;PMS7003;20450;49.074;9.158;2023-12-20T05:39:29;5.00;4.00;3.25
34176;PMS7003;20450;49.074;9.158;2023-12-20T05:41:56;3.00;3.00;2.75
34176;PMS7003;20450;49.074;9.158;2023-12-20T05:44:24;3.25;3.25;3.00
34176;PMS7003;20450;49.074;9.158;2023-12-20T05:46:52;0.50;0.50;0.00
34176;PMS7003;20450;49.074;9.158;2023-12-20T05:49:19;1.00;1.00;1.00
34176;PMS7003;20450;49.074;9.158;2023-12-20T05:54:35;3.00;3.00;2.00
34176;PMS7003;20450;49.074;9.158;2023-12-20T05:57:02;3.25;3.25;3.00
34176;PMS7003;20450;49.074;9.158;2023-12-20T05:59:31;2.00;2.00;1.00
34176;PMS7003;20450;49.074;9.158;2023-12-20T06:01:58;2.50;2.50;2.25
34176;PMS7003;20450;49.074;9.158;2023-12-20T06:04:25;2.00;2.00;2.00
34176;PMS7003;20450;49.074;9.158;2023-12-20T06:06:53;0.50;0.50;0.50
34176;PMS7003;20450;49.074;9.158;2023-12-20T06:09:20;0.00;0.00;0.00
34176;PMS7003;20450;49.074;9.158;2023-12-20T06:11:47;2.75;2.75;2.25
34176;PMS7003;20450;49.074;9.158;2023-12-20T06:14:14;0.00;0.00;0.00
34176;PMS7003;20450;49.074;9.158;2023-12-20T06:16:42;1.00;1.00;1.00
34176;PMS7003;20450;49.074;9.158;2023-12-20T06:19:10;1.00;0.00;0.00
34176;PMS7003;20450;49.074;9.158;2023-12-20T06:21:39;0.00;0.00;0.00
34176;PMS7003;20450;49.074;9.158;2023-12-20T06:24:10;4.00;4.00;3.75
34176;PMS7003;20450;49.074;9.158;2023-12-20T06:26:37;6.00;6.00;6.00
34176;PMS7003;20450;49.074;9.158;2023-12-20T06:29:04;5.25;3.50;3.00
34176;PMS7003;20450;49.074;9.158;2023-12-20T06:31:33;3.00;3.00;3.00
34176;PMS7003;20450;49.074;9.158;2023-12-20T06:34:01;3.00;3.00;2.00
34176;PMS7003;20450;49.074;9.158;2023-12-20T06:36:28;5.25;5.25;4.75
34176;PMS7003;20450;49.074;9.158;2023-12-20T06:38:56;5.00;5.00;5.00
34176;PMS7003;20450;49.074;9.158;2023-12-20T06:41:23;7.25;5.00;5.00
34176;PMS7003;20450;49.074;9.158;2023-12-20T06:43:50;10.25;10.25;8.25
34176;PMS7003;20450;49.074;9.158;2023-12-20T06:46:17;6.50;6.00;5.00
34176;PMS7003;20450;49.074;9.158;2023-12-20T06:48:46;4.00;3.00;2.00
34176;PMS7003;20450;49.074;9.158;2023-12-20T06:51:15;8.00;6.25;5.00
34176;PMS7003;20450;49.074;9.158;2023-12-20T06:53:43;9.25;6.75;5.75
34176;PMS7003;20450;49.074;9.158;2023-12-20T06:56:10;6.00;6.00;5.25
34176;PMS7003;20450;49.074;9.158;2023-12-20T06:58:41;7.00;7.00;6.00
34176;PMS7003;20450;49.074;9.158;2023-12-20T07:01:10;5.75;5.00;4.00
34176;PMS7003;20450;49.074;9.158;2023-12-20T07:03:38;8.75;8.75;7.00
34176;PMS7003;20450;49.074;9.158;2023-12-20T07:06:05;8.50;7.50;7.00
34176;PMS7003;20450;49.074;9.158;2023-12-20T07:08:34;10.25;10.25;7.50
34176;PMS7003;20450;49.074;9.158;2023-12-20T07:11:01;7.00;6.25;5.25
34176;PMS7003;20450;49.074;9.158;2023-12-20T07:13:29;6.25;6.25;5.75
34176;PMS7003;20450;49.074;9.158;2023-12-20T07:15:57;7.50;6.50;5.50
34176;PMS7003;20450;49.074;9.158;2023-12-20T07:18:25;7.00;3.00;2.00
34176;PMS7003;20450;49.074;9.158;2023-12-20T07:20:52;5.00;5.00;4.00
34176;PMS7003;20450;49.074;9.158;2023-12-20T07:23:19;7.00;7.00;6.25
34176;PMS7003;20450;49.074;9.158;2023-12-20T07:25:47;3.00;3.00;3.00
34176;PMS7003;20450;49.074;9.158;2023-12-20T07:28:15;7.00;7.00;6.00
34176;PMS7003;20450;49.074;9.158;2023-12-20T07:30:42;9.50;9.50;7.00
34176;PMS7003;20450;49.074;9.158;2023-12-20T07:33:10;7.75;6.00;5.25
34176;PMS7003;20450;49.074;9.158;2023-12-20T07:35:37;11.00;11.00;8.25
34176;PMS7003;20450;49.074;9.158;2023-12-20T07:38:04;8.50;7.00;6.25
34176;PMS7003;20450;49.074;9.158;2023-12-20T07:40:31;11.00;11.00;7.00
34176;PMS7003;20450;49.074;9.158;2023-12-20T07:43:00;8.00;6.50;5.00
34176;PMS7003;20450;49.074;9.158;2023-12-20T07:45:27;5.50;4.50;3.00
34176;PMS7003;20450;49.074;9.158;2023-12-20T07:47:54;7.50;7.50;7.00
34176;PMS7003;20450;49.074;9.158;2023-12-20T07:50:21;11.00;9.50;7.00
34176;PMS7003;20450;49.074;9.158;2023-12-20T07:52:49;7.00;7.00;6.00
34176;PMS7003;20450;49.074;9.158;2023-12-20T07:55:16;5.00;5.00;4.75
34176;PMS7003;20450;49.074;9.158;2023-12-20T07:57:43;8.00;5.00;5.00
34176;PMS7003;20450;49.074;9.158;2023-12-20T08:00:13;5.75;5.75;5.00
34176;PMS7003;20450;49.074;9.158;2023-12-20T08:02:40;6.75;5.00;4.00
34176;PMS7003;20450;49.074;9.158;2023-12-20T08:05:07;4.00;4.00;3.00
34176;PMS7003;20450;49.074;9.158;2023-12-20T08:07:34;7.75;7.00;5.25
34176;PMS7003;20450;49.074;9.158;2023-12-20T08:10:02;8.75;4.50;3.75
34176;PMS7003;20450;49.074;9.158;2023-12-20T08:12:29;4.25;2.25;1.50
34176;PMS7003;20450;49.074;9.158;2023-12-20T08:14:59;9.00;3.25;3.25
34176;PMS7003;20450;49.074;9.158;2023-12-20T08:17:28;6.75;5.25;4.00
34176;PMS7003;20450;49.074;9.158;2023-12-20T08:19:56;6.00;6.00;5.00
34176;PMS7003;20450;49.074;9.158;2023-12-20T08:22:23;2.50;2.50;1.50
34176;PMS7003;20450;49.074;9.158;2023-12-20T08:24:50;4.00;4.00;3.00
34176;PMS7003;20450;49.074;9.158;2023-12-20T08:27:17;4.00;4.00;3.50
34176;PMS7003;20450;49.074;9.158;2023-12-20T08:29:44;6.00;5.00;3.75
34176;PMS7003;20450;49.074;9.158;2023-12-20T08:32:12;1.00;0.00;0.00
34176;PMS7003;20450;49.074;9.158;2023-12-20T08:34:40;3.00;3.00;1.00
34176;PMS7003;20450;49.074;9.158;2023-12-20T08:37:07;3.00;3.00;2.00
34176;PMS7003;20450;49.074;9.158;2023-12-20T08:39:35;3.00;3.00;1.67
34176;PMS7003;20450;49.074;9.158;2023-12-20T08:42:02;1.50;1.50;1.50
34176;PMS7003;20450;49.074;9.158;2023-12-20T08:44:30;2.50;2.50;1.00
34176;PMS7003;20450;49.074;9.158;2023-12-20T08:46:57;3.25;2.50;1.00
34176;PMS7003;20450;49.074;9.158;2023-12-20T08:49:24;3.00;3.00;3.00
34176;PMS7003;20450;49.074;9.158;2023-12-20T08:51:53;2.00;2.00;1.00
34176;PMS7003;20450;49.074;9.158;2023-12-20T08:54:20;4.50;2.00;1.00
34176;PMS7003;20450;49.074;9.158;2023-12-20T08:56:47;0.25;0.00;0.00
34176;PMS7003;20450;49.074;9.158;2023-12-20T08:59:13;2.00;2.00;1.00
34176;PMS7003;20450;49.074;9.158;2023-12-20T09:01:40;1.50;1.50;1.00
34176;PMS7003;20450;49.074;9.158;2023-12-20T09:04:08;2.00;1.50;0.50
34176;PMS7003;20450;49.074;9.158;2023-12-20T09:06:36;3.25;1.50;1.50
34176;PMS7003;20450;49.074;9.158;2023-12-20T09:09:05;1.50;1.50;1.50
34176;PMS7003;20450;49.074;9.158;2023-12-20T09:11:31;3.25;1.00;1.00
34176;PMS7003;20450;49.074;9.158;2023-12-20T09:13:59;1.00;0.50;0.50
34176;PMS7003;20450;49.074;9.158;2023-12-20T09:16:25;1.50;1.00;0.50
34176;PMS7003;20450;49.074;9.158;2023-12-20T09:18:52;2.00;1.00;0.75
34176;PMS7003;20450;49.074;9.158;2023-12-20T09:21:20;1.50;1.50;1.00
34176;PMS7003;20450;49.074;9.158;2023-12-20T09:23:47;0.25;0.25;0.00
34176;PMS7003;20450;49.074;9.158;2023-12-20T09:26:15;0.00;0.00;0.00
34176;PMS7003;20450;49.074;9.158;2023-12-20T09:28:42;1.00;1.00;1.00
34176;PMS7003;20450;49.074;9.158;2023-12-20T09:31:09;0.00;0.00;0.00
34176;PMS7003;20450;49.074;9.158;2023-12-20T09:33:36;0.75;0.75;0.75
34176;PMS7003;20450;49.074;9.158;2023-12-20T09:36:04;1.00;1.00;1.00
34176;PMS7003;20450;49.074;9.158;2023-12-20T09:38:32;3.50;3.00;1.00
34176;PMS7003;20450;49.074;9.158;2023-12-20T09:40:59;0.00;0.00;0.00
34176;PMS7003;20450;49.074;9.158;2023-12-20T09:43:28;0.50;0.50;0.25
34176;PMS7003;20450;49.074;9.158;2023-12-20T09:45:58;1.00;1.00;1.00
34176;PMS7003;20450;49.074;9.158;2023-12-20T09:48:27;0.25;0.25;0.00
34176;PMS7003;20450;49.074;9.158;2023-12-20T09:50:55;0.00;0.00;0.00
34176;PMS7003;20450;49.074;9.158;2023-12-20T09:53:22;0.00;0.00;0.00
34176;PMS7003;20450;49.074;9.158;2023-12-20T09:55:53;0.00;0.00;0.00
34176;PMS7003;20450;49.074;9.158;2023-12-20T09:58:19;0.00;0.00;0.00
34176;PMS7003;20450;49.074;9.158;2023-12-20T10:00:48;1.00;0.00;0.00
34176;PMS7003;20450;49.074;9.158;2023-12-20T10:03:16;0.00;0.00;0.00
34176;PMS7003;20450;49.074;9.158;2023-12-20T10:05:49;2.50;0.50;0.00
34176;PMS7003;20450;49.074;9.158;2023-12-20T10:08:23;0.00;0.00;0.00
34176;PMS7003;20450;49.074;9.158;2023-12-20T10:10:51;3.50;3.00;0.75
34176;PMS7003;20450;49.074;9.158;2023-12-20T10:13:19;0.00;0.00;0.00
34176;PMS7003;20450;49.074;9.158;2023-12-20T10:15:46;3.50;3.00;3.00
34176;PMS7003;20450;49.074;9.158;2023-12-20T10:18:14;0.50;0.50;0.50
34176;PMS7003;20450;49.074;9.158;2023-12-20T10:20:41;2.50;0.50;0.00
34176;PMS7003;20450;49.074;9.158;2023-12-20T10:23:09;3.00;0.25;0.25
34176;PMS7003;20450;49.074;9.158;2023-12-20T10:25:37;0.00;0.00;0.00
34176;PMS7003;20450;49.074;9.158;2023-12-20T10:28:10;1.00;0.00;0.00
34176;PMS7003;20450;49.074;9.158;2023-12-20T10:30:40;0.00;0.00;0.00
34176;PMS7003;20450;49.074;9.158;2023-12-20T10:33:08;0.75;0.75;0.50
34176;PMS7003;20450;49.074;9.158;2023-12-20T10:35:41;0.00;0.00;0.00
34176;PMS7003;20450;49.074;9.158;2023-12-20T10:38:12;0.00;0.00;0.00
34176;PMS7003;20450;49.074;9.158;2023-12-20T10:40:42;0.75;0.25;0.00
34176;PMS7003;20450;49.074;9.158;2023-12-20T10:43:12;0.00;0.00;0.00
34176;PMS7003;20450;49.074;9.158;2023-12-20T10:45:43;0.00;0.00;0.00
34176;PMS7003;20450;49.074;9.158;2023-12-20T10:48:10;0.00;0.00;0.00
34176;PMS7003;20450;49.074;9.158;2023-12-20T10:50:38;0.00;0.00;0.00
34176;PMS7003;20450;49.074;9.158;2023-12-20T10:53:11;2.00;0.00;0.00
34176;PMS7003;20450;49.074;9.158;2023-12-20T10:55:39;0.75;0.00;0.00
34176;PMS7003;20450;49.074;9.158;2023-12-20T10:58:09;0.00;0.00;0.00
34176;PMS7003;20450;49.074;9.158;2023-12-20T11:00:39;2.50;0.75;0.00
34176;PMS7003;20450;49.074;9.158;2023-12-20T11:03:08;3.25;0.00;0.00
34176;PMS7003;20450;49.074;9.158;2023-12-20T11:05:38;1.00;1.00;0.50
34176;PMS7003;20450;49.074;9.158;2023-12-20T11:08:20;0.00;0.00;0.00
34176;PMS7003;20450;49.074;9.158;2023-12-20T11:10:59;8.50;4.00;0.00
34176;PMS7003;20450;49.074;9.158;2023-12-20T11:13:37;0.75;0.00;0.00
34176;PMS7003;20450;49.074;9.158;2023-12-20T11:16:19;0.00;0.00;0.00
34176;PMS7003;20450;49.074;9.158;2023-12-20T11:18:50;0.75;0.75;0.75
34176;PMS7003;20450;49.074;9.158;2023-12-20T11:21:17;1.50;0.50;0.00
34176;PMS7003;20450;49.074;9.158;2023-12-20T11:23:45;1.00;0.25;0.25
34176;PMS7003;20450;49.074;9.158;2023-12-20T11:26:14;0.00;0.00;0.00
34176;PMS7003;20450;49.074;9.158;2023-12-20T11:28:42;3.00;1.00;1.00
34176;PMS7003;20450;49.074;9.158;2023-12-20T11:31:12;0.00;0.00;0.00
34176;PMS7003;20450;49.074;9.158;2023-12-20T11:33:42;2.50;2.50;2.50
34176;PMS7003;20450;49.074;9.158;2023-12-20T11:36:12;0.25;0.25;0.00
34176;PMS7003;20450;49.074;9.158;2023-12-20T11:38:50;1.00;1.00;1.00
34176;PMS7003;20450;49.074;9.158;2023-12-20T11:41:22;1.00;1.00;1.00
34176;PMS7003;20450;49.074;9.158;2023-12-20T11:43:49;0.00;0.00;0.00
34176;PMS7003;20450;49.074;9.158;2023-12-20T11:46:20;4.00;0.00;0.00
34176;PMS7003;20450;49.074;9.158;2023-12-20T11:48:47;0.00;0.00;0.00
34176;PMS7003;20450;49.074;9.158;2023-12-20T11:51:15;1.00;1.00;0.00
34176;PMS7003;20450;49.074;9.158;2023-12-20T11:53:42;1.00;0.00;0.00
34176;PMS7003;20450;49.074;9.158;2023-12-20T11:56:12;0.00;0.00;0.00
34176;PMS7003;20450;49.074;9.158;2023-12-20T11:58:39;0.00;0.00;0.00
34176;PMS7003;20450;49.074;9.158;2023-12-20T12:01:06;0.00;0.00;0.00
34176;PMS7003;20450;49.074;9.158;2023-12-20T12:03:33;1.25;0.00;0.00
34176;PMS7003;20450;49.074;9.158;2023-12-20T12:06:01;1.00;1.00;1.00
34176;PMS7003;20450;49.074;9.158;2023-12-20T12:08:29;0.75;0.75;0.50
34176;PMS7003;20450;49.074;9.158;2023-12-20T12:10:56;1.50;1.50;1.00
34176;PMS7003;20450;49.074;9.158;2023-12-20T12:13:25;3.25;1.00;0.50
34176;PMS7003;20450;49.074;9.158;2023-12-20T12:15:52;2.50;0.75;0.25
34176;PMS7003;20450;49.074;9.158;2023-12-20T12:18:19;2.50;0.50;0.00
34176;PMS7003;20450;49.074;9.158;2023-12-20T12:20:47;0.75;0.75;0.75
34176;PMS7003;20450;49.074;9.158;2023-12-20T12:23:15;0.50;0.00;0.00
34176;PMS7003;20450;49.074;9.158;2023-12-20T12:25:49;3.75;2.00;1.00
34176;PMS7003;20450;49.074;9.158;2023-12-20T12:28:18;1.00;1.00;1.00
34176;PMS7003;20450;49.074;9.158;2023-12-20T12:30:57;3.00;1.00;1.00
34176;PMS7003;20450;49.074;9.158;2023-12-20T12:33:24;0.67;0.67;0.67
34176;PMS7003;20450;49.074;9.158;2023-12-20T12:35:52;0.00;0.00;0.00
34176;PMS7003;20450;49.074;9.158;2023-12-20T12:38:19;0.00;0.00;0.00
34176;PMS7003;20450;49.074;9.158;2023-12-20T12:40:47;0.67;0.67;0.00
34176;PMS7003;20450;49.074;9.158;2023-12-20T12:43:14;0.00;0.00;0.00
34176;PMS7003;20450;49.074;9.158;2023-12-20T12:45:41;0.00;0.00;0.00
34176;PMS7003;20450;49.074;9.158;2023-12-20T12:48:11;2.25;2.25;2.00
34176;PMS7003;20450;49.074;9.158;2023-12-20T12:50:38;2.75;2.75;2.00
34176;PMS7003;20450;49.074;9.158;2023-12-20T12:53:05;1.00;1.00;0.00
34176;PMS7003;20450;49.074;9.158;2023-12-20T12:55:32;2.00;2.00;1.75
34176;PMS7003;20450;49.074;9.158;2023-12-20T12:58:01;2.50;2.50;2.25
34176;PMS7003;20450;49.074;9.158;2023-12-20T13:00:29;4.50;4.50;3.00
34176;PMS7003;20450;49.074;9.158;2023-12-20T13:02:55;0.00;0.00;0.00
34176;PMS7003;20450;49.074;9.158;2023-12-20T13:05:25;4.25;3.25;2.75
34176;PMS7003;20450;49.074;9.158;2023-12-20T13:07:52;2.50;2.50;2.00
34176;PMS7003;20450;49.074;9.158;2023-12-20T13:10:21;3.00;1.00;1.00
34176;PMS7003;20450;49.074;9.158;2023-12-20T13:12:48;1.00;1.00;1.00
34176;PMS7003;20450;49.074;9.158;2023-12-20T13:15:15;3.00;1.00;1.00
34176;PMS7003;20450;49.074;9.158;2023-12-20T13:17:43;0.00;0.00;0.00
34176;PMS7003;20450;49.074;9.158;2023-12-20T13:20:10;3.25;3.00;2.00
34176;PMS7003;20450;49.074;9.158;2023-12-20T13:22:40;5.75;5.75;2.75
34176;PMS7003;20450;49.074;9.158;2023-12-20T13:25:07;5.00;3.00;3.00
34176;PMS7003;20450;49.074;9.158;2023-12-20T13:27:34;2.75;2.75;2.00
34176;PMS7003;20450;49.074;9.158;2023-12-20T13:30:01;3.00;3.00;3.00
34176;PMS7003;20450;49.074;9.158;2023-12-20T13:32:30;0.00;0.00;0.00
34176;PMS7003;20450;49.074;9.158;2023-12-20T13:34:57;3.00;3.00;3.00
34176;PMS7003;20450;49.074;9.158;2023-12-20T13:37:24;1.00;1.00;1.00
34176;PMS7003;20450;49.074;9.158;2023-12-20T13:39:53;8.00;4.75;4.00
34176;PMS7003;20450;49.074;9.158;2023-12-20T13:42:20;5.25;4.25;3.50
34176;PMS7003;20450;49.074;9.158;2023-12-20T13:44:47;3.50;3.25;2.75
34176;PMS7003;20450;49.074;9.158;2023-12-20T13:47:14;2.00;2.00;2.00
34176;PMS7003;20450;49.074;9.158;2023-12-20T13:49:41;4.75;3.00;3.00
34176;PMS7003;20450;49.074;9.158;2023-12-20T13:52:08;2.00;2.00;2.00
34176;PMS7003;20450;49.074;9.158;2023-12-20T13:54:35;1.00;1.00;1.00
34176;PMS7003;20450;49.074;9.158;2023-12-20T13:57:03;2.50;0.75;0.25
34176;PMS7003;20450;49.074;9.158;2023-12-20T13:59:42;4.25;3.25;2.50
34176;PMS7003;20450;49.074;9.158;2023-12-20T14:02:09;3.50;3.50;3.00
34176;PMS7003;20450;49.074;9.158;2023-12-20T14:04:37;1.00;1.00;1.00
34176;PMS7003;20450;49.074;9.158;2023-12-20T14:07:09;1.00;1.00;1.00
34176;PMS7003;20450;49.074;9.158;2023-12-20T14:09:39;9.50;8.25;6.00
34176;PMS7003;20450;49.074;9.158;2023-12-20T14:12:08;8.25;6.25;5.00
34176;PMS7003;20450;49.074;9.158;2023-12-20T14:14:34;3.00;1.00;1.00
34176;PMS7003;20450;49.074;9.158;2023-12-20T14:17:02;3.00;1.00;1.00
34176;PMS7003;20450;49.074;9.158;2023-12-20T14:19:31;2.00;2.00;2.00
34176;PMS7003;20450;49.074;9.158;2023-12-20T14:21:58;3.00;3.00;1.00
34176;PMS7003;20450;49.074;9.158;2023-12-20T14:24:26;5.00;5.00;4.00
34176;PMS7003;20450;49.074;9.158;2023-12-20T14:26:53;4.00;4.00;3.00
34176;PMS7003;20450;49.074;9.158;2023-12-20T14:29:21;3.75;2.50;2.00